sensor_id;sensor_type;location;lat;lon;timestamp;P1;durP1;ratioP1;P2;durP2;ratioP2
52744;SDS011;38637;49.984;20.426;2024-02-23T00:00:30;4.63;;;4.17;;
52744;SDS011;38637;49.984;20.426;2024-02-23T00:02:56;4.93;;;3.93;;
52744;SDS011;38637;49.984;20.426;2024-02-23T00:05:23;5.60;;;4.70;;
52744;SDS011;38637;49.984;20.426;2024-02-23T00:07:48;37.38;;;25.98;;
52744;SDS011;38637;49.984;20.426;2024-02-23T00:10:14;9.70;;;7.07;;
52744;SDS011;38637;49.984;20.426;2024-02-23T00:12:39;6.50;;;4.87;;
52744;SDS011;38637;49.984;20.426;2024-02-23T00:15:05;7.63;;;5.67;;
52744;SDS011;38637;49.984;20.426;2024-02-23T00:17:30;6.77;;;4.67;;
52744;SDS011;38637;49.984;20.426;2024-02-23T00:19:56;5.57;;;4.23;;
52744;SDS011;38637;49.984;20.426;2024-02-23T00:22:21;4.03;;;3.20;;
52744;SDS011;38637;49.984;20.426;2024-02-23T00:24:46;2.60;;;1.93;;
52744;SDS011;38637;49.984;20.426;2024-02-23T00:27:12;4.17;;;2.40;;
52744;SDS011;38637;49.984;20.426;2024-02-23T00:29:37;3.43;;;2.70;;
52744;SDS011;38637;49.984;20.426;2024-02-23T00:32:03;4.43;;;2.93;;
52744;SDS011;38637;49.984;20.426;2024-02-23T00:34:29;3.15;;;2.55;;
52744;SDS011;38637;49.984;20.426;2024-02-23T00:36:56;2.97;;;2.10;;
52744;SDS011;38637;49.984;20.426;2024-02-23T00:39:22;5.47;;;3.90;;
52744;SDS011;38637;49.984;20.426;2024-02-23T00:41:48;4.23;;;3.17;;
52744;SDS011;38637;49.984;20.426;2024-02-23T00:44:13;5.57;;;2.97;;
52744;SDS011;38637;49.984;20.426;2024-02-23T00:46:38;2.83;;;2.10;;
52744;SDS011;38637;49.984;20.426;2024-02-23T00:49:04;2.60;;;1.87;;
52744;SDS011;38637;49.984;20.426;2024-02-23T00:53:56;2.72;;;2.00;;
52744;SDS011;38637;49.984;20.426;2024-02-23T00:56:21;2.40;;;1.90;;
52744;SDS011;38637;49.984;20.426;2024-02-23T00:58:46;3.00;;;1.60;;
52744;SDS011;38637;49.984;20.426;2024-02-23T01:01:11;2.10;;;1.90;;
52744;SDS011;38637;49.984;20.426;2024-02-23T01:03:37;1.50;;;1.30;;
52744;SDS011;38637;49.984;20.426;2024-02-23T01:06:02;1.50;;;1.40;;
52744;SDS011;38637;49.984;20.426;2024-02-23T01:08:28;2.30;;;1.30;;
52744;SDS011;38637;49.984;20.426;2024-02-23T01:10:53;2.17;;;1.40;;
52744;SDS011;38637;49.984;20.426;2024-02-23T01:13:18;1.23;;;1.10;;
52744;SDS011;38637;49.984;20.426;2024-02-23T01:15:44;1.80;;;1.23;;
52744;SDS011;38637;49.984;20.426;2024-02-23T01:18:09;3.40;;;1.33;;
52744;SDS011;38637;49.984;20.426;2024-02-23T01:20:34;1.03;;;0.90;;
52744;SDS011;38637;49.984;20.426;2024-02-23T01:23:00;3.53;;;0.97;;
52744;SDS011;38637;49.984;20.426;2024-02-23T01:25:25;3.80;;;1.10;;
52744;SDS011;38637;49.984;20.426;2024-02-23T01:27:51;1.07;;;0.90;;
52744;SDS011;38637;49.984;20.426;2024-02-23T01:30:16;0.87;;;0.87;;
52744;SDS011;38637;49.984;20.426;2024-02-23T01:32:42;1.10;;;1.00;;
52744;SDS011;38637;49.984;20.426;2024-02-23T01:35:07;1.00;;;0.90;;
52744;SDS011;38637;49.984;20.426;2024-02-23T01:37:33;1.20;;;1.00;;
52744;SDS011;38637;49.984;20.426;2024-02-23T01:39:59;1.03;;;0.90;;
52744;SDS011;38637;49.984;20.426;2024-02-23T01:42:25;1.35;;;1.10;;
52744;SDS011;38637;49.984;20.426;2024-02-23T01:44:51;0.90;;;0.90;;
52744;SDS011;38637;49.984;20.426;2024-02-23T01:47:16;1.10;;;1.00;;
52744;SDS011;38637;49.984;20.426;2024-02-23T01:49:42;1.13;;;1.03;;
52744;SDS011;38637;49.984;20.426;2024-02-23T01:52:10;3.22;;;1.00;;
52744;SDS011;38637;49.984;20.426;2024-02-23T01:54:37;1.33;;;0.93;;
52744;SDS011;38637;49.984;20.426;2024-02-23T01:57:02;1.10;;;1.00;;
52744;SDS011;38637;49.984;20.426;2024-02-23T01:59:28;1.00;;;0.90;;
52744;SDS011;38637;49.984;20.426;2024-02-23T02:01:54;1.17;;;1.08;;
52744;SDS011;38637;49.984;20.426;2024-02-23T02:04:19;1.30;;;1.20;;
52744;SDS011;38637;49.984;20.426;2024-02-23T02:06:45;1.20;;;1.10;;
52744;SDS011;38637;49.984;20.426;2024-02-23T02:09:11;2.35;;;1.27;;
52744;SDS011;38637;49.984;20.426;2024-02-23T02:11:44;1.40;;;1.07;;
52744;SDS011;38637;49.984;20.426;2024-02-23T02:14:11;1.48;;;1.00;;
52744;SDS011;38637;49.984;20.426;2024-02-23T02:16:36;1.37;;;0.80;;
52744;SDS011;38637;49.984;20.426;2024-02-23T02:19:02;2.77;;;1.30;;
52744;SDS011;38637;49.984;20.426;2024-02-23T02:21:27;1.00;;;0.90;;
52744;SDS011;38637;49.984;20.426;2024-02-23T02:23:53;2.10;;;1.00;;
52744;SDS011;38637;49.984;20.426;2024-02-23T02:26:18;0.90;;;0.90;;
52744;SDS011;38637;49.984;20.426;2024-02-23T02:28:44;1.20;;;1.10;;
52744;SDS011;38637;49.984;20.426;2024-02-23T02:31:09;0.80;;;0.80;;
52744;SDS011;38637;49.984;20.426;2024-02-23T02:33:34;1.20;;;1.00;;
52744;SDS011;38637;49.984;20.426;2024-02-23T02:36:00;3.97;;;2.03;;
52744;SDS011;38637;49.984;20.426;2024-02-23T02:38:25;1.07;;;0.97;;
52744;SDS011;38637;49.984;20.426;2024-02-23T02:40:51;0.90;;;0.90;;
52744;SDS011;38637;49.984;20.426;2024-02-23T02:43:16;1.10;;;0.90;;
52744;SDS011;38637;49.984;20.426;2024-02-23T02:45:41;1.40;;;1.10;;
52744;SDS011;38637;49.984;20.426;2024-02-23T02:48:07;1.97;;;1.00;;
52744;SDS011;38637;49.984;20.426;2024-02-23T02:50:33;1.10;;;1.00;;
52744;SDS011;38637;49.984;20.426;2024-02-23T02:52:58;1.33;;;1.07;;
52744;SDS011;38637;49.984;20.426;2024-02-23T02:55:23;1.10;;;1.00;;
52744;SDS011;38637;49.984;20.426;2024-02-23T02:57:48;1.33;;;1.23;;
52744;SDS011;38637;49.984;20.426;2024-02-23T03:00:14;1.97;;;1.40;;
52744;SDS011;38637;49.984;20.426;2024-02-23T03:02:39;3.80;;;1.30;;
52744;SDS011;38637;49.984;20.426;2024-02-23T03:05:05;2.20;;;1.27;;
52744;SDS011;38637;49.984;20.426;2024-02-23T03:07:30;2.03;;;1.20;;
52744;SDS011;38637;49.984;20.426;2024-02-23T03:09:55;1.63;;;1.50;;
52744;SDS011;38637;49.984;20.426;2024-02-23T03:12:21;1.60;;;1.40;;
52744;SDS011;38637;49.984;20.426;2024-02-23T03:14:46;1.90;;;1.40;;
52744;SDS011;38637;49.984;20.426;2024-02-23T03:17:11;3.37;;;1.93;;
52744;SDS011;38637;49.984;20.426;2024-02-23T03:19:37;1.43;;;1.30;;
52744;SDS011;38637;49.984;20.426;2024-02-23T03:22:03;1.50;;;1.40;;
52744;SDS011;38637;49.984;20.426;2024-02-23T03:24:28;2.47;;;1.30;;
52744;SDS011;38637;49.984;20.426;2024-02-23T03:26:54;1.87;;;1.60;;
52744;SDS011;38637;49.984;20.426;2024-02-23T03:29:20;1.70;;;1.60;;
52744;SDS011;38637;49.984;20.426;2024-02-23T03:31:49;1.75;;;1.40;;
52744;SDS011;38637;49.984;20.426;2024-02-23T03:34:14;2.20;;;1.60;;
52744;SDS011;38637;49.984;20.426;2024-02-23T03:36:39;4.70;;;1.30;;
52744;SDS011;38637;49.984;20.426;2024-02-23T03:39:04;1.87;;;1.30;;
52744;SDS011;38637;49.984;20.426;2024-02-23T03:41:30;2.50;;;1.60;;
52744;SDS011;38637;49.984;20.426;2024-02-23T03:43:55;2.30;;;1.50;;
52744;SDS011;38637;49.984;20.426;2024-02-23T03:46:21;2.00;;;1.50;;
52744;SDS011;38637;49.984;20.426;2024-02-23T03:48:46;1.87;;;1.20;;
52744;SDS011;38637;49.984;20.426;2024-02-23T03:51:12;1.90;;;1.63;;
52744;SDS011;38637;49.984;20.426;2024-02-23T03:53:37;2.07;;;1.87;;
52744;SDS011;38637;49.984;20.426;2024-02-23T03:56:03;3.60;;;3.20;;
52744;SDS011;38637;49.984;20.426;2024-02-23T03:58:28;3.37;;;3.00;;
52744;SDS011;38637;49.984;20.426;2024-02-23T04:00:54;5.23;;;2.70;;
52744;SDS011;38637;49.984;20.426;2024-02-23T04:03:19;3.07;;;2.23;;
52744;SDS011;38637;49.984;20.426;2024-02-23T04:05:44;3.37;;;1.60;;
52744;SDS011;38637;49.984;20.426;2024-02-23T04:08:10;1.77;;;1.60;;
52744;SDS011;38637;49.984;20.426;2024-02-23T04:10:35;3.00;;;1.90;;
52744;SDS011;38637;49.984;20.426;2024-02-23T04:13:01;1.90;;;1.50;;
52744;SDS011;38637;49.984;20.426;2024-02-23T04:15:26;2.10;;;1.90;;
52744;SDS011;38637;49.984;20.426;2024-02-23T04:17:51;2.27;;;2.07;;
52744;SDS011;38637;49.984;20.426;2024-02-23T04:20:17;2.13;;;1.90;;
52744;SDS011;38637;49.984;20.426;2024-02-23T04:22:42;1.70;;;1.60;;
52744;SDS011;38637;49.984;20.426;2024-02-23T04:25:08;2.47;;;1.60;;
52744;SDS011;38637;49.984;20.426;2024-02-23T04:27:33;1.80;;;1.70;;
52744;SDS011;38637;49.984;20.426;2024-02-23T04:29:58;1.80;;;1.70;;
52744;SDS011;38637;49.984;20.426;2024-02-23T04:32:23;2.80;;;1.97;;
52744;SDS011;38637;49.984;20.426;2024-02-23T04:34:49;2.00;;;1.80;;
52744;SDS011;38637;49.984;20.426;2024-02-23T04:37:14;1.50;;;1.40;;
52744;SDS011;38637;49.984;20.426;2024-02-23T04:39:39;2.43;;;1.90;;
52744;SDS011;38637;49.984;20.426;2024-02-23T04:42:06;2.17;;;1.90;;
52744;SDS011;38637;49.984;20.426;2024-02-23T04:44:33;2.25;;;1.75;;
52744;SDS011;38637;49.984;20.426;2024-02-23T04:46:59;2.22;;;2.03;;
52744;SDS011;38637;49.984;20.426;2024-02-23T04:49:24;2.30;;;2.10;;
52744;SDS011;38637;49.984;20.426;2024-02-23T04:51:50;2.27;;;2.07;;
52744;SDS011;38637;49.984;20.426;2024-02-23T04:54:15;3.00;;;2.30;;
52744;SDS011;38637;49.984;20.426;2024-02-23T04:56:40;3.10;;;2.17;;
52744;SDS011;38637;49.984;20.426;2024-02-23T04:59:06;2.67;;;2.30;;
52744;SDS011;38637;49.984;20.426;2024-02-23T05:01:34;3.20;;;2.47;;
52744;SDS011;38637;49.984;20.426;2024-02-23T05:04:01;3.70;;;2.50;;
52744;SDS011;38637;49.984;20.426;2024-02-23T05:06:26;2.43;;;2.23;;
52744;SDS011;38637;49.984;20.426;2024-02-23T05:08:51;2.60;;;2.40;;
52744;SDS011;38637;49.984;20.426;2024-02-23T05:11:16;3.03;;;2.50;;
52744;SDS011;38637;49.984;20.426;2024-02-23T05:13:42;3.73;;;2.70;;
52744;SDS011;38637;49.984;20.426;2024-02-23T05:16:07;2.30;;;1.87;;
52744;SDS011;38637;49.984;20.426;2024-02-23T05:18:32;4.03;;;2.30;;
52744;SDS011;38637;49.984;20.426;2024-02-23T05:20:58;4.43;;;2.27;;
52744;SDS011;38637;49.984;20.426;2024-02-23T05:23:23;2.80;;;2.10;;
52744;SDS011;38637;49.984;20.426;2024-02-23T05:25:48;2.93;;;2.70;;
52744;SDS011;38637;49.984;20.426;2024-02-23T05:28:14;2.30;;;1.88;;
52744;SDS011;38637;49.984;20.426;2024-02-23T05:30:40;12.43;;;2.30;;
52744;SDS011;38637;49.984;20.426;2024-02-23T05:33:05;2.80;;;2.50;;
52744;SDS011;38637;49.984;20.426;2024-02-23T05:35:31;5.50;;;2.10;;
52744;SDS011;38637;49.984;20.426;2024-02-23T05:37:56;2.30;;;2.10;;
52744;SDS011;38637;49.984;20.426;2024-02-23T05:40:22;4.63;;;4.23;;
52744;SDS011;38637;49.984;20.426;2024-02-23T05:42:47;4.93;;;2.50;;
52744;SDS011;38637;49.984;20.426;2024-02-23T05:45:12;3.00;;;2.40;;
52744;SDS011;38637;49.984;20.426;2024-02-23T05:47:38;3.13;;;2.13;;
52744;SDS011;38637;49.984;20.426;2024-02-23T05:50:04;9.47;;;8.50;;
52744;SDS011;38637;49.984;20.426;2024-02-23T05:52:33;5.97;;;4.13;;
52744;SDS011;38637;49.984;20.426;2024-02-23T05:54:59;8.32;;;7.50;;
52744;SDS011;38637;49.984;20.426;2024-02-23T05:57:25;22.27;;;19.48;;
52744;SDS011;38637;49.984;20.426;2024-02-23T06:02:17;9.75;;;7.25;;
52744;SDS011;38637;49.984;20.426;2024-02-23T06:04:42;14.90;;;13.30;;
52744;SDS011;38637;49.984;20.426;2024-02-23T06:07:08;16.70;;;14.83;;
52744;SDS011;38637;49.984;20.426;2024-02-23T06:09:33;13.90;;;11.83;;
52744;SDS011;38637;49.984;20.426;2024-02-23T06:11:58;21.73;;;19.33;;
52744;SDS011;38637;49.984;20.426;2024-02-23T06:14:24;27.50;;;24.33;;
52744;SDS011;38637;49.984;20.426;2024-02-23T06:16:49;35.07;;;31.40;;
52744;SDS011;38637;49.984;20.426;2024-02-23T06:19:15;43.27;;;31.13;;
52744;SDS011;38637;49.984;20.426;2024-02-23T06:21:40;43.67;;;29.90;;
52744;SDS011;38637;49.984;20.426;2024-02-23T06:24:06;33.03;;;23.00;;
52744;SDS011;38637;49.984;20.426;2024-02-23T06:26:33;14.68;;;10.93;;
52744;SDS011;38637;49.984;20.426;2024-02-23T06:28:59;22.90;;;15.50;;
52744;SDS011;38637;49.984;20.426;2024-02-23T06:31:24;24.33;;;18.30;;
52744;SDS011;38637;49.984;20.426;2024-02-23T06:33:50;20.53;;;14.10;;
52744;SDS011;38637;49.984;20.426;2024-02-23T06:36:16;11.68;;;9.23;;
52744;SDS011;38637;49.984;20.426;2024-02-23T06:41:09;14.30;;;11.45;;
52744;SDS011;38637;49.984;20.426;2024-02-23T06:43:36;28.23;;;15.73;;
52744;SDS011;38637;49.984;20.426;2024-02-23T06:46:07;14.70;;;10.70;;
52744;SDS011;38637;49.984;20.426;2024-02-23T06:48:34;17.05;;;12.20;;
52744;SDS011;38637;49.984;20.426;2024-02-23T06:50:59;13.95;;;11.02;;
52744;SDS011;38637;49.984;20.426;2024-02-23T06:53:25;12.97;;;9.40;;
52744;SDS011;38637;49.984;20.426;2024-02-23T06:55:50;12.63;;;10.03;;
52744;SDS011;38637;49.984;20.426;2024-02-23T06:58:15;8.10;;;6.87;;
52744;SDS011;38637;49.984;20.426;2024-02-23T07:00:41;10.50;;;6.97;;
52744;SDS011;38637;49.984;20.426;2024-02-23T07:03:07;9.83;;;5.80;;
52744;SDS011;38637;49.984;20.426;2024-02-23T07:05:32;6.00;;;5.40;;
52744;SDS011;38637;49.984;20.426;2024-02-23T07:07:58;9.30;;;6.50;;
52744;SDS011;38637;49.984;20.426;2024-02-23T07:10:23;10.43;;;7.47;;
52744;SDS011;38637;49.984;20.426;2024-02-23T07:12:50;12.27;;;8.73;;
52744;SDS011;38637;49.984;20.426;2024-02-23T07:15:18;8.60;;;6.20;;
52744;SDS011;38637;49.984;20.426;2024-02-23T07:17:44;12.45;;;8.27;;
52744;SDS011;38637;49.984;20.426;2024-02-23T07:20:10;11.10;;;8.17;;
52744;SDS011;38637;49.984;20.426;2024-02-23T07:22:36;12.73;;;11.40;;
52744;SDS011;38637;49.984;20.426;2024-02-23T07:25:01;7.33;;;6.53;;
52744;SDS011;38637;49.984;20.426;2024-02-23T07:27:29;15.45;;;11.57;;
52744;SDS011;38637;49.984;20.426;2024-02-23T07:29:54;22.85;;;13.60;;
52744;SDS011;38637;49.984;20.426;2024-02-23T07:32:20;53.63;;;27.37;;
52744;SDS011;38637;49.984;20.426;2024-02-23T07:34:45;48.93;;;24.40;;
52744;SDS011;38637;49.984;20.426;2024-02-23T07:37:10;31.30;;;16.07;;
52744;SDS011;38637;49.984;20.426;2024-02-23T07:39:36;18.83;;;12.43;;
52744;SDS011;38637;49.984;20.426;2024-02-23T07:42:01;9.83;;;7.90;;
52744;SDS011;38637;49.984;20.426;2024-02-23T07:44:27;9.98;;;8.98;;
52744;SDS011;38637;49.984;20.426;2024-02-23T07:46:52;10.40;;;9.27;;
52744;SDS011;38637;49.984;20.426;2024-02-23T07:49:19;11.93;;;10.27;;
52744;SDS011;38637;49.984;20.426;2024-02-23T07:51:45;10.27;;;8.93;;
52744;SDS011;38637;49.984;20.426;2024-02-23T07:54:10;12.67;;;11.20;;
52744;SDS011;38637;49.984;20.426;2024-02-23T07:56:36;12.33;;;10.90;;
52744;SDS011;38637;49.984;20.426;2024-02-23T07:59:01;12.33;;;10.60;;
52744;SDS011;38637;49.984;20.426;2024-02-23T08:03:53;9.63;;;8.63;;
52744;SDS011;38637;49.984;20.426;2024-02-23T08:06:18;13.13;;;8.60;;
52744;SDS011;38637;49.984;20.426;2024-02-23T08:08:44;8.93;;;8.03;;
52744;SDS011;38637;49.984;20.426;2024-02-23T08:11:09;9.53;;;7.60;;
52744;SDS011;38637;49.984;20.426;2024-02-23T08:13:34;10.00;;;7.23;;
52744;SDS011;38637;49.984;20.426;2024-02-23T08:16:00;8.90;;;7.17;;
52744;SDS011;38637;49.984;20.426;2024-02-23T08:18:25;9.73;;;8.10;;
52744;SDS011;38637;49.984;20.426;2024-02-23T08:20:51;9.73;;;7.83;;
52744;SDS011;38637;49.984;20.426;2024-02-23T08:23:17;10.50;;;9.03;;
52744;SDS011;38637;49.984;20.426;2024-02-23T08:25:44;12.48;;;8.90;;
52744;SDS011;38637;49.984;20.426;2024-02-23T08:28:09;10.00;;;8.60;;
52744;SDS011;38637;49.984;20.426;2024-02-23T08:30:34;10.63;;;8.30;;
52744;SDS011;38637;49.984;20.426;2024-02-23T08:33:00;14.13;;;11.57;;
52744;SDS011;38637;49.984;20.426;2024-02-23T08:35:25;14.57;;;11.07;;
52744;SDS011;38637;49.984;20.426;2024-02-23T08:37:51;11.00;;;9.40;;
52744;SDS011;38637;49.984;20.426;2024-02-23T08:40:16;15.77;;;14.07;;
52744;SDS011;38637;49.984;20.426;2024-02-23T08:42:42;18.90;;;15.20;;
52744;SDS011;38637;49.984;20.426;2024-02-23T08:45:07;18.53;;;16.53;;
52744;SDS011;38637;49.984;20.426;2024-02-23T08:47:34;35.83;;;24.70;;
52744;SDS011;38637;49.984;20.426;2024-02-23T08:50:00;19.27;;;15.43;;
52744;SDS011;38637;49.984;20.426;2024-02-23T08:52:26;15.43;;;12.65;;
52744;SDS011;38637;49.984;20.426;2024-02-23T08:54:51;19.43;;;16.07;;
52744;SDS011;38637;49.984;20.426;2024-02-23T08:57:17;11.47;;;7.00;;
52744;SDS011;38637;49.984;20.426;2024-02-23T08:59:44;16.45;;;11.85;;
52744;SDS011;38637;49.984;20.426;2024-02-23T09:02:10;7.07;;;6.27;;
52744;SDS011;38637;49.984;20.426;2024-02-23T09:04:35;7.83;;;6.37;;
52744;SDS011;38637;49.984;20.426;2024-02-23T09:07:01;8.83;;;6.90;;
52744;SDS011;38637;49.984;20.426;2024-02-23T09:09:26;5.00;;;4.43;;
52744;SDS011;38637;49.984;20.426;2024-02-23T09:11:51;4.37;;;3.43;;
52744;SDS011;38637;49.984;20.426;2024-02-23T09:14:17;5.37;;;4.87;;
52744;SDS011;38637;49.984;20.426;2024-02-23T09:16:42;5.97;;;5.37;;
52744;SDS011;38637;49.984;20.426;2024-02-23T09:19:07;7.43;;;6.73;;
52744;SDS011;38637;49.984;20.426;2024-02-23T09:21:33;5.57;;;4.40;;
52744;SDS011;38637;49.984;20.426;2024-02-23T09:23:58;5.63;;;5.13;;
52744;SDS011;38637;49.984;20.426;2024-02-23T09:26:24;4.70;;;4.30;;
52744;SDS011;38637;49.984;20.426;2024-02-23T09:28:49;3.23;;;2.90;;
52744;SDS011;38637;49.984;20.426;2024-02-23T09:31:14;3.63;;;3.20;;
52744;SDS011;38637;49.984;20.426;2024-02-23T09:33:40;3.37;;;2.60;;
52744;SDS011;38637;49.984;20.426;2024-02-23T09:36:05;3.30;;;2.93;;
52744;SDS011;38637;49.984;20.426;2024-02-23T09:38:31;5.33;;;4.00;;
52744;SDS011;38637;49.984;20.426;2024-02-23T09:40:57;5.07;;;3.30;;
52744;SDS011;38637;49.984;20.426;2024-02-23T09:43:23;7.83;;;7.00;;
52744;SDS011;38637;49.984;20.426;2024-02-23T09:45:53;8.98;;;6.95;;
52744;SDS011;38637;49.984;20.426;2024-02-23T09:48:19;5.83;;;3.77;;
52744;SDS011;38637;49.984;20.426;2024-02-23T09:50:47;10.85;;;5.40;;
52744;SDS011;38637;49.984;20.426;2024-02-23T09:53:13;8.85;;;5.97;;
52744;SDS011;38637;49.984;20.426;2024-02-23T09:55:39;4.70;;;4.20;;
52744;SDS011;38637;49.984;20.426;2024-02-23T09:58:04;5.37;;;4.83;;
52744;SDS011;38637;49.984;20.426;2024-02-23T10:00:33;7.97;;;5.47;;
52744;SDS011;38637;49.984;20.426;2024-02-23T10:03:02;7.78;;;5.30;;
52744;SDS011;38637;49.984;20.426;2024-02-23T10:05:29;8.07;;;6.55;;
52744;SDS011;38637;49.984;20.426;2024-02-23T10:07:56;8.02;;;7.20;;
52744;SDS011;38637;49.984;20.426;2024-02-23T10:10:32;14.25;;;12.07;;
52744;SDS011;38637;49.984;20.426;2024-02-23T10:12:59;18.35;;;16.13;;
52744;SDS011;38637;49.984;20.426;2024-02-23T10:15:24;18.13;;;16.23;;
52744;SDS011;38637;49.984;20.426;2024-02-23T10:17:51;13.02;;;11.68;;
52744;SDS011;38637;49.984;20.426;2024-02-23T10:20:16;12.33;;;11.13;;
52744;SDS011;38637;49.984;20.426;2024-02-23T10:22:42;7.68;;;6.80;;
52744;SDS011;38637;49.984;20.426;2024-02-23T10:25:09;7.88;;;6.15;;
52744;SDS011;38637;49.984;20.426;2024-02-23T10:27:34;10.97;;;8.10;;
52744;SDS011;38637;49.984;20.426;2024-02-23T10:29:59;13.63;;;12.23;;
52744;SDS011;38637;49.984;20.426;2024-02-23T10:32:25;11.17;;;10.07;;
52744;SDS011;38637;49.984;20.426;2024-02-23T10:34:54;27.75;;;14.35;;
52744;SDS011;38637;49.984;20.426;2024-02-23T10:37:21;20.55;;;10.30;;
52744;SDS011;38637;49.984;20.426;2024-02-23T10:39:48;15.20;;;8.48;;
52744;SDS011;38637;49.984;20.426;2024-02-23T10:42:18;10.85;;;5.53;;
52744;SDS011;38637;49.984;20.426;2024-02-23T10:44:49;12.50;;;6.20;;
52744;SDS011;38637;49.984;20.426;2024-02-23T10:49:44;14.18;;;6.30;;
52744;SDS011;38637;49.984;20.426;2024-02-23T10:52:11;12.52;;;6.35;;
52744;SDS011;38637;49.984;20.426;2024-02-23T10:54:38;15.65;;;5.85;;
52744;SDS011;38637;49.984;20.426;2024-02-23T10:57:05;11.38;;;5.43;;
52744;SDS011;38637;49.984;20.426;2024-02-23T10:59:31;6.57;;;3.95;;
52744;SDS011;38637;49.984;20.426;2024-02-23T11:01:56;4.40;;;3.00;;
52744;SDS011;38637;49.984;20.426;2024-02-23T11:04:24;5.60;;;3.85;;
52744;SDS011;38637;49.984;20.426;2024-02-23T11:06:51;4.82;;;4.05;;
52744;SDS011;38637;49.984;20.426;2024-02-23T11:09:20;7.03;;;4.45;;
52744;SDS011;38637;49.984;20.426;2024-02-23T11:11:56;5.45;;;3.13;;
52744;SDS011;38637;49.984;20.426;2024-02-23T11:14:29;5.05;;;2.65;;
52744;SDS011;38637;49.984;20.426;2024-02-23T11:16:55;3.53;;;2.30;;
52744;SDS011;38637;49.984;20.426;2024-02-23T11:19:20;2.50;;;1.73;;
52744;SDS011;38637;49.984;20.426;2024-02-23T11:21:51;1.77;;;1.33;;
52744;SDS011;38637;49.984;20.426;2024-02-23T11:24:17;2.33;;;1.58;;
52744;SDS011;38637;49.984;20.426;2024-02-23T11:26:42;3.13;;;1.77;;
52744;SDS011;38637;49.984;20.426;2024-02-23T11:29:11;2.03;;;1.60;;
52744;SDS011;38637;49.984;20.426;2024-02-23T11:31:44;1.73;;;1.42;;
52744;SDS011;38637;49.984;20.426;2024-02-23T11:34:11;1.20;;;1.10;;
52744;SDS011;38637;49.984;20.426;2024-02-23T11:36:38;2.00;;;1.13;;
52744;SDS011;38637;49.984;20.426;2024-02-23T11:39:04;2.58;;;1.50;;
52744;SDS011;38637;49.984;20.426;2024-02-23T11:41:30;3.08;;;1.77;;
52744;SDS011;38637;49.984;20.426;2024-02-23T11:43:55;2.30;;;2.10;;
52744;SDS011;38637;49.984;20.426;2024-02-23T11:46:23;2.33;;;1.77;;
52744;SDS011;38637;49.984;20.426;2024-02-23T11:48:48;16.33;;;11.73;;
52744;SDS011;38637;49.984;20.426;2024-02-23T11:51:20;4.30;;;3.45;;
52744;SDS011;38637;49.984;20.426;2024-02-23T11:53:46;9.73;;;7.65;;
52744;SDS011;38637;49.984;20.426;2024-02-23T11:56:13;11.05;;;8.32;;
52744;SDS011;38637;49.984;20.426;2024-02-23T11:58:39;4.93;;;4.20;;
52744;SDS011;38637;49.984;20.426;2024-02-23T12:01:05;4.13;;;3.72;;
52744;SDS011;38637;49.984;20.426;2024-02-23T12:05:57;2.35;;;2.00;;
52744;SDS011;38637;49.984;20.426;2024-02-23T12:08:24;11.45;;;10.23;;
52744;SDS011;38637;49.984;20.426;2024-02-23T12:10:51;14.07;;;10.48;;
52744;SDS011;38637;49.984;20.426;2024-02-23T12:13:17;3.58;;;3.17;;
52744;SDS011;38637;49.984;20.426;2024-02-23T12:15:42;6.00;;;4.30;;
52744;SDS011;38637;49.984;20.426;2024-02-23T12:18:10;5.80;;;4.47;;
52744;SDS011;38637;49.984;20.426;2024-02-23T12:20:37;9.38;;;7.15;;
52744;SDS011;38637;49.984;20.426;2024-02-23T12:23:02;2.87;;;2.57;;
52744;SDS011;38637;49.984;20.426;2024-02-23T12:25:28;2.10;;;1.90;;
52744;SDS011;38637;49.984;20.426;2024-02-23T12:27:54;2.77;;;1.53;;
52744;SDS011;38637;49.984;20.426;2024-02-23T12:30:20;2.00;;;1.70;;
52744;SDS011;38637;49.984;20.426;2024-02-23T12:32:46;2.33;;;1.53;;
52744;SDS011;38637;49.984;20.426;2024-02-23T12:35:11;2.43;;;2.10;;
52744;SDS011;38637;49.984;20.426;2024-02-23T12:37:37;4.63;;;2.80;;
52744;SDS011;38637;49.984;20.426;2024-02-23T12:40:02;4.43;;;3.13;;
52744;SDS011;38637;49.984;20.426;2024-02-23T12:42:28;1.97;;;1.80;;
52744;SDS011;38637;49.984;20.426;2024-02-23T12:44:53;1.77;;;1.60;;
52744;SDS011;38637;49.984;20.426;2024-02-23T12:47:18;2.30;;;1.80;;
52744;SDS011;38637;49.984;20.426;2024-02-23T12:49:43;1.40;;;1.30;;
52744;SDS011;38637;49.984;20.426;2024-02-23T12:52:09;1.90;;;1.47;;
52744;SDS011;38637;49.984;20.426;2024-02-23T12:54:35;3.05;;;2.00;;
52744;SDS011;38637;49.984;20.426;2024-02-23T12:57:00;2.97;;;1.80;;
52744;SDS011;38637;49.984;20.426;2024-02-23T12:59:25;3.17;;;2.07;;
52744;SDS011;38637;49.984;20.426;2024-02-23T13:05:03;2.25;;;1.95;;
52744;SDS011;38637;49.984;20.426;2024-02-23T13:07:28;2.57;;;1.90;;
52744;SDS011;38637;49.984;20.426;2024-02-23T13:09:53;3.60;;;2.27;;
52744;SDS011;38637;49.984;20.426;2024-02-23T13:12:19;2.50;;;2.13;;
52744;SDS011;38637;49.984;20.426;2024-02-23T13:14:44;3.10;;;2.70;;
52744;SDS011;38637;49.984;20.426;2024-02-23T13:17:10;3.37;;;2.60;;
52744;SDS011;38637;49.984;20.426;2024-02-23T13:19:35;2.97;;;2.33;;
52744;SDS011;38637;49.984;20.426;2024-02-23T13:22:00;3.10;;;2.50;;
52744;SDS011;38637;49.984;20.426;2024-02-23T13:24:26;3.03;;;2.57;;
52744;SDS011;38637;49.984;20.426;2024-02-23T13:26:51;2.23;;;2.00;;
52744;SDS011;38637;49.984;20.426;2024-02-23T13:29:17;3.97;;;2.23;;
52744;SDS011;38637;49.984;20.426;2024-02-23T13:31:42;3.77;;;2.90;;
52744;SDS011;38637;49.984;20.426;2024-02-23T13:34:08;3.97;;;2.60;;
52744;SDS011;38637;49.984;20.426;2024-02-23T13:36:34;4.53;;;3.55;;
52744;SDS011;38637;49.984;20.426;2024-02-23T13:39:00;3.07;;;2.37;;
52744;SDS011;38637;49.984;20.426;2024-02-23T13:41:25;12.73;;;6.60;;
52744;SDS011;38637;49.984;20.426;2024-02-23T13:43:50;14.47;;;7.57;;
52744;SDS011;38637;49.984;20.426;2024-02-23T13:46:15;13.87;;;7.70;;
52744;SDS011;38637;49.984;20.426;2024-02-23T13:48:41;21.47;;;9.53;;
52744;SDS011;38637;49.984;20.426;2024-02-23T13:51:06;18.70;;;8.10;;
52744;SDS011;38637;49.984;20.426;2024-02-23T13:53:32;22.77;;;8.33;;
52744;SDS011;38637;49.984;20.426;2024-02-23T13:55:58;13.87;;;5.90;;
52744;SDS011;38637;49.984;20.426;2024-02-23T13:58:23;14.40;;;6.53;;
52744;SDS011;38637;49.984;20.426;2024-02-23T14:00:49;11.27;;;7.20;;
52744;SDS011;38637;49.984;20.426;2024-02-23T14:03:15;7.53;;;4.27;;
52744;SDS011;38637;49.984;20.426;2024-02-23T14:05:42;6.90;;;4.10;;
52744;SDS011;38637;49.984;20.426;2024-02-23T14:10:35;5.57;;;3.97;;
52744;SDS011;38637;49.984;20.426;2024-02-23T14:13:00;5.93;;;5.13;;
52744;SDS011;38637;49.984;20.426;2024-02-23T14:15:25;8.33;;;7.63;;
52744;SDS011;38637;49.984;20.426;2024-02-23T14:17:52;4.63;;;3.08;;
52744;SDS011;38637;49.984;20.426;2024-02-23T14:20:17;5.80;;;3.00;;
52744;SDS011;38637;49.984;20.426;2024-02-23T14:22:43;3.20;;;2.90;;
52744;SDS011;38637;49.984;20.426;2024-02-23T14:25:08;5.63;;;3.93;;
52744;SDS011;38637;49.984;20.426;2024-02-23T14:27:34;6.38;;;3.45;;
52744;SDS011;38637;49.984;20.426;2024-02-23T14:30:00;4.73;;;3.67;;
52744;SDS011;38637;49.984;20.426;2024-02-23T14:32:25;5.47;;;4.23;;
52744;SDS011;38637;49.984;20.426;2024-02-23T14:34:51;6.90;;;6.30;;
52744;SDS011;38637;49.984;20.426;2024-02-23T14:37:16;11.97;;;10.87;;
52744;SDS011;38637;49.984;20.426;2024-02-23T14:39:41;9.10;;;8.20;;